West Union, Minnesota
Current Conditions -  °F | °C
As of 10:32 PM on Sunday 25 Jan 2015 (Local Time) from KD39 Reporting Station
Overcast Overcast  
Wind Chill: 15°   Ceiling: 1000
Heat Index: 26°   Visibility: 10mi
Dew Point: 23°   Wind: 10mph
Humidity: 90%   Direction: 180°S
Pressure: 29.91"   Gusts: NA
Location:  45.8°N, 95.08°W
Report Text: KD39 260432Z AUTO 18009KT 10SM OVC010 M04/M05 A2991 RMK AO2 T10361050
Loading
Personal Weather Stations






























Interactive Weather Map New forecast layout! Learn more

10-Day Weather Forecast

Advertisements
Track Severe Weather on mobile